Terminal Aerodrome Forecast
Issued by NWS

Home | Current Version | Previous Version | Text Only | Print | Product List | Glossary On
Versions: 1 2 3 4 5 6 7 8 9 10 11 12 13 14 15 16 17 18
363
FTUS43 KEAX 011513 AAA
TAFSTJ
TAF AMD
KSTJ 011513Z 0115/0212 01007KT P6SM VCSH OVC009
     FM011800 33010KT P6SM OVC015
     FM012100 34013KT P6SM OVC025
     FM021000 35005KT P6SM BKN020=

USA.gov is the U.S. government's official web portal to all federal, state and local government web resources and services.